createdAt,value
2023-03-29T00:00:30.158Z,11.00
2023-03-29T00:41:10.301Z,8.45
2023-03-29T01:01:11.819Z,9.43
2023-03-29T01:21:13.663Z,7.30
2023-03-29T01:41:15.502Z,7.93
2023-03-29T02:01:17.356Z,8.20
2023-03-29T02:21:19.175Z,7.75
2023-03-29T02:41:22.192Z,9.27
2023-03-29T03:01:23.995Z,10.38
2023-03-29T03:21:25.784Z,10.52
2023-03-29T03:41:27.852Z,7.57
2023-03-29T04:01:29.753Z,4.80
2023-03-29T04:21:41.760Z,5.43
2023-03-29T04:41:45.243Z,5.63
2023-03-29T05:01:52.951Z,7.28
2023-03-29T05:21:55.001Z,5.30
2023-03-29T05:41:58.616Z,3.22
2023-03-29T06:02:10.729Z,8.68
2023-03-29T06:22:17.155Z,5.43
2023-03-29T06:42:21.478Z,4.78
2023-03-29T07:02:49.655Z,4.70
2023-03-29T07:22:52.530Z,4.53
2023-03-29T07:42:54.875Z,3.53
2023-03-29T08:02:58.417Z,4.30
2023-03-29T08:23:00.793Z,6.43
2023-03-29T08:43:25.433Z,9.93
2023-03-29T09:03:46.729Z,9.27
2023-03-29T09:23:56.853Z,9.02
2023-03-29T09:44:23.884Z,11.00
2023-03-29T10:04:35.933Z,5.93
2023-03-29T10:24:45.498Z,4.50
2023-03-29T10:44:47.075Z,5.70
2023-03-29T11:04:48.824Z,3.80
2023-03-29T11:24:51.503Z,3.15
2023-03-29T11:44:54.942Z,2.05
2023-03-29T12:04:58.134Z,2.35
2023-03-29T12:25:14.310Z,2.40
2023-03-29T12:45:16.181Z,2.00
2023-03-29T13:05:17.981Z,2.80
2023-03-29T13:25:19.484Z,3.55
2023-03-29T13:45:21.625Z,3.53
2023-03-29T14:05:23.154Z,2.05
2023-03-29T14:25:26.032Z,4.13
2023-03-29T14:45:27.511Z,4.32
2023-03-29T15:05:29.309Z,2.53
2023-03-29T15:25:30.892Z,1.90
2023-03-29T15:45:32.655Z,2.15
2023-03-29T16:05:34.340Z,2.72
2023-03-29T16:25:36.031Z,2.15
2023-03-29T16:45:37.478Z,2.60
2023-03-29T17:05:39.294Z,3.85
2023-03-29T17:25:40.754Z,3.15
2023-03-29T17:45:42.869Z,2.95
2023-03-29T18:05:44.523Z,3.78
2023-03-29T18:25:48.747Z,4.90
2023-03-29T18:45:50.539Z,4.20
2023-03-29T19:05:52.128Z,4.85
2023-03-29T19:25:53.717Z,4.07
2023-03-29T19:45:55.295Z,4.28
2023-03-29T20:05:57.721Z,3.60
2023-03-29T20:25:59.484Z,5.32
2023-03-29T20:46:01.293Z,7.72
2023-03-29T21:06:02.928Z,6.88
2023-03-29T21:26:04.652Z,6.82
2023-03-29T21:46:08.325Z,6.78
2023-03-29T22:06:10.164Z,11.88
2023-03-29T22:26:14.581Z,10.88
2023-03-29T22:46:18.060Z,10.68
2023-03-29T23:06:19.704Z,10.02
2023-03-29T23:26:21.373Z,8.63
2023-03-29T23:46:26.097Z,8.65
